sensor_id;sensor_type;location;lat;lon;timestamp;pressure;altitude;pressure_sealevel;temperature;humidity
3748;BME280;1889;50.058;8.688;2023-05-24T00:01:15;100754.33;;;15.85;50.91
3748;BME280;1889;50.058;8.688;2023-05-24T00:03:47;100755.12;;;15.89;51.02
3748;BME280;1889;50.058;8.688;2023-05-24T00:06:16;100750.19;;;15.90;50.21
3748;BME280;1889;50.058;8.688;2023-05-24T00:08:46;100750.19;;;15.90;50.21
3748;BME280;1889;50.058;8.688;2023-05-24T00:11:15;100747.65;;;15.87;50.68
3748;BME280;1889;50.058;8.688;2023-05-24T00:13:45;100749.51;;;15.83;50.96
3748;BME280;1889;50.058;8.688;2023-05-24T00:16:15;100742.75;;;15.88;50.69
3748;BME280;1889;50.058;8.688;2023-05-24T00:18:44;100742.75;;;15.88;50.69
3748;BME280;1889;50.058;8.688;2023-05-24T00:21:14;100746.59;;;15.78;50.57
3748;BME280;1889;50.058;8.688;2023-05-24T00:23:43;100745.30;;;15.76;50.89
3748;BME280;1889;50.058;8.688;2023-05-24T00:26:12;100748.81;;;15.62;50.64
3748;BME280;1889;50.058;8.688;2023-05-24T00:28:41;100748.81;;;15.62;50.64
3748;BME280;1889;50.058;8.688;2023-05-24T00:31:11;100738.92;;;15.67;50.82
3748;BME280;1889;50.058;8.688;2023-05-24T00:33:40;100742.98;;;15.80;50.54
3748;BME280;1889;50.058;8.688;2023-05-24T00:36:09;100742.59;;;15.63;50.76
3748;BME280;1889;50.058;8.688;2023-05-24T00:38:39;100738.65;;;15.61;50.94
3748;BME280;1889;50.058;8.688;2023-05-24T00:41:08;100736.50;;;15.74;50.45
3748;BME280;1889;50.058;8.688;2023-05-24T00:43:38;100741.41;;;15.57;50.57
3748;BME280;1889;50.058;8.688;2023-05-24T00:46:15;100741.41;;;15.57;50.57
3748;BME280;1889;50.058;8.688;2023-05-24T00:48:45;100742.25;;;15.59;50.39
3748;BME280;1889;50.058;8.688;2023-05-24T00:51:14;100742.25;;;15.59;50.39
3748;BME280;1889;50.058;8.688;2023-05-24T00:53:48;100748.90;;;15.41;50.11
3748;BME280;1889;50.058;8.688;2023-05-24T00:56:17;100751.44;;;15.13;50.84
3748;BME280;1889;50.058;8.688;2023-05-24T00:58:47;100751.74;;;15.01;51.37
3748;BME280;1889;50.058;8.688;2023-05-24T01:01:17;100751.74;;;15.01;51.37
3748;BME280;1889;50.058;8.688;2023-05-24T01:03:47;100756.63;;;15.00;51.23
3748;BME280;1889;50.058;8.688;2023-05-24T01:06:16;100758.89;;;14.99;51.13
3748;BME280;1889;50.058;8.688;2023-05-24T01:09:12;100753.48;;;15.02;50.91
3748;BME280;1889;50.058;8.688;2023-05-24T01:14:57;100766.19;;;14.72;51.61
3748;BME280;1889;50.058;8.688;2023-05-24T01:18:12;100757.34;;;14.34;52.07
3748;BME280;1889;50.058;8.688;2023-05-24T01:20:06;100754.16;;;14.38;52.61
3748;BME280;1889;50.058;8.688;2023-05-24T01:22:57;100756.92;;;14.53;52.15
3748;BME280;1889;50.058;8.688;2023-05-24T01:28:01;100766.70;;;14.68;51.66
3748;BME280;1889;50.058;8.688;2023-05-24T01:30:32;100760.76;;;14.76;51.31
3748;BME280;1889;50.058;8.688;2023-05-24T01:33:02;100756.67;;;14.25;52.41
3748;BME280;1889;50.058;8.688;2023-05-24T01:35:31;100753.58;;;14.25;52.51
3748;BME280;1889;50.058;8.688;2023-05-24T01:38:02;100754.25;;;14.54;52.02
3748;BME280;1889;50.058;8.688;2023-05-24T01:40:32;100752.52;;;13.94;52.79
3748;BME280;1889;50.058;8.688;2023-05-24T01:43:05;100746.34;;;13.93;53.26
3748;BME280;1889;50.058;8.688;2023-05-24T01:45:47;100745.09;;;14.29;52.38
3748;BME280;1889;50.058;8.688;2023-05-24T01:51:02;100742.88;;;13.47;54.16
3748;BME280;1889;50.058;8.688;2023-05-24T01:53:39;100750.53;;;13.62;54.28
3748;BME280;1889;50.058;8.688;2023-05-24T01:56:07;100747.58;;;13.06;54.94
3748;BME280;1889;50.058;8.688;2023-05-24T01:58:37;100744.55;;;13.52;54.44
3748;BME280;1889;50.058;8.688;2023-05-24T02:01:07;100744.20;;;13.90;53.39
3748;BME280;1889;50.058;8.688;2023-05-24T02:03:38;100745.74;;;13.79;53.53
3748;BME280;1889;50.058;8.688;2023-05-24T02:06:07;100745.74;;;13.79;53.54
3748;BME280;1889;50.058;8.688;2023-05-24T02:08:37;100746.25;;;13.77;53.02
3748;BME280;1889;50.058;8.688;2023-05-24T02:11:07;100748.27;;;13.42;53.39
3748;BME280;1889;50.058;8.688;2023-05-24T02:13:36;100747.00;;;13.15;53.64
3748;BME280;1889;50.058;8.688;2023-05-24T02:16:05;100745.47;;;13.27;53.27
3748;BME280;1889;50.058;8.688;2023-05-24T02:18:35;100752.83;;;13.34;52.77
3748;BME280;1889;50.058;8.688;2023-05-24T02:21:04;100748.80;;;12.88;53.74
3748;BME280;1889;50.058;8.688;2023-05-24T02:23:34;100738.81;;;13.05;53.93
3748;BME280;1889;50.058;8.688;2023-05-24T02:26:03;100743.67;;;13.29;53.76
3748;BME280;1889;50.058;8.688;2023-05-24T02:28:32;100742.83;;;13.50;53.02
3748;BME280;1889;50.058;8.688;2023-05-24T02:31:02;100751.70;;;13.23;52.92
3748;BME280;1889;50.058;8.688;2023-05-24T02:33:31;100747.89;;;13.14;53.68
3748;BME280;1889;50.058;8.688;2023-05-24T02:36:00;100752.88;;;13.31;53.04
3748;BME280;1889;50.058;8.688;2023-05-24T02:38:30;100758.42;;;13.17;53.42
3748;BME280;1889;50.058;8.688;2023-05-24T02:40:59;100754.70;;;13.02;53.57
3748;BME280;1889;50.058;8.688;2023-05-24T02:43:29;100764.64;;;12.88;53.71
3748;BME280;1889;50.058;8.688;2023-05-24T02:45:58;100750.27;;;13.04;53.93
3748;BME280;1889;50.058;8.688;2023-05-24T02:48:27;100749.84;;;13.52;52.76
3748;BME280;1889;50.058;8.688;2023-05-24T02:50:57;100750.46;;;13.43;52.78
3748;BME280;1889;50.058;8.688;2023-05-24T02:53:28;100755.20;;;13.48;52.30
3748;BME280;1889;50.058;8.688;2023-05-24T02:55:58;100754.55;;;13.59;52.35
3748;BME280;1889;50.058;8.688;2023-05-24T02:58:28;100750.34;;;13.92;51.34
3748;BME280;1889;50.058;8.688;2023-05-24T03:00:57;100748.41;;;14.00;51.18
3748;BME280;1889;50.058;8.688;2023-05-24T03:03:26;100749.33;;;13.97;50.71
3748;BME280;1889;50.058;8.688;2023-05-24T03:05:56;100756.37;;;13.98;51.00
3748;BME280;1889;50.058;8.688;2023-05-24T03:08:25;100761.89;;;14.08;50.76
3748;BME280;1889;50.058;8.688;2023-05-24T03:10:54;100756.91;;;13.72;51.22
3748;BME280;1889;50.058;8.688;2023-05-24T03:13:24;100758.68;;;13.72;51.33
3748;BME280;1889;50.058;8.688;2023-05-24T03:15:53;100749.20;;;13.83;51.27
3748;BME280;1889;50.058;8.688;2023-05-24T03:18:22;100753.18;;;13.14;52.19
3748;BME280;1889;50.058;8.688;2023-05-24T03:20:52;100753.23;;;13.59;51.50
3748;BME280;1889;50.058;8.688;2023-05-24T03:23:21;100760.70;;;13.12;51.83
3748;BME280;1889;50.058;8.688;2023-05-24T03:25:50;100754.70;;;13.29;51.91
3748;BME280;1889;50.058;8.688;2023-05-24T03:28:20;100752.45;;;13.30;51.74
3748;BME280;1889;50.058;8.688;2023-05-24T03:30:49;100751.19;;;13.51;51.49
3748;BME280;1889;50.058;8.688;2023-05-24T03:33:19;100754.14;;;12.83;52.65
3748;BME280;1889;50.058;8.688;2023-05-24T03:35:48;100756.91;;;12.76;53.29
3748;BME280;1889;50.058;8.688;2023-05-24T03:38:17;100756.69;;;12.63;53.67
3748;BME280;1889;50.058;8.688;2023-05-24T03:40:47;100750.85;;;12.96;53.11
3748;BME280;1889;50.058;8.688;2023-05-24T03:43:16;100762.83;;;12.90;52.82
3748;BME280;1889;50.058;8.688;2023-05-24T03:45:45;100763.90;;;12.80;53.53
3748;BME280;1889;50.058;8.688;2023-05-24T03:48:15;100759.52;;;13.04;53.22
3748;BME280;1889;50.058;8.688;2023-05-24T03:50:44;100760.03;;;13.26;52.66
3748;BME280;1889;50.058;8.688;2023-05-24T03:53:14;100760.69;;;12.88;53.35
3748;BME280;1889;50.058;8.688;2023-05-24T03:55:43;100770.00;;;12.25;54.39
3748;BME280;1889;50.058;8.688;2023-05-24T03:58:13;100765.42;;;12.39;54.71
3748;BME280;1889;50.058;8.688;2023-05-24T04:00:42;100766.34;;;12.90;53.28
3748;BME280;1889;50.058;8.688;2023-05-24T04:03:11;100760.76;;;12.56;54.08
3748;BME280;1889;50.058;8.688;2023-05-24T04:05:41;100769.43;;;12.65;53.84
3748;BME280;1889;50.058;8.688;2023-05-24T04:08:11;100772.39;;;12.72;53.57
3748;BME280;1889;50.058;8.688;2023-05-24T04:10:42;100766.58;;;13.04;52.99
3748;BME280;1889;50.058;8.688;2023-05-24T04:13:11;100767.81;;;13.33;52.21
3748;BME280;1889;50.058;8.688;2023-05-24T04:15:40;100771.78;;;13.07;52.51
3748;BME280;1889;50.058;8.688;2023-05-24T04:18:10;100775.25;;;12.85;53.27
3748;BME280;1889;50.058;8.688;2023-05-24T04:20:40;100779.16;;;12.61;53.90
3748;BME280;1889;50.058;8.688;2023-05-24T04:23:09;100773.31;;;12.96;53.27
3748;BME280;1889;50.058;8.688;2023-05-24T04:25:38;100778.67;;;13.18;52.76
3748;BME280;1889;50.058;8.688;2023-05-24T04:28:08;100778.77;;;13.38;52.24
3748;BME280;1889;50.058;8.688;2023-05-24T04:30:37;100779.35;;;13.53;51.73
3748;BME280;1889;50.058;8.688;2023-05-24T04:33:06;100776.98;;;13.62;51.38
3748;BME280;1889;50.058;8.688;2023-05-24T04:35:36;100777.33;;;13.66;51.16
3748;BME280;1889;50.058;8.688;2023-05-24T04:38:05;100786.52;;;12.96;52.62
3748;BME280;1889;50.058;8.688;2023-05-24T04:40:34;100793.44;;;12.76;52.79
3748;BME280;1889;50.058;8.688;2023-05-24T04:43:04;100791.87;;;12.91;52.86
3748;BME280;1889;50.058;8.688;2023-05-24T04:45:34;100794.23;;;12.81;53.13
3748;BME280;1889;50.058;8.688;2023-05-24T04:48:04;100787.42;;;12.95;52.79
3748;BME280;1889;50.058;8.688;2023-05-24T04:50:33;100795.58;;;13.33;52.11
3748;BME280;1889;50.058;8.688;2023-05-24T04:53:04;100799.00;;;13.38;52.09
3748;BME280;1889;50.058;8.688;2023-05-24T04:55:33;100803.08;;;13.56;51.78
3748;BME280;1889;50.058;8.688;2023-05-24T04:58:03;100800.22;;;13.21;51.87
3748;BME280;1889;50.058;8.688;2023-05-24T05:00:32;100805.81;;;12.44;53.33
3748;BME280;1889;50.058;8.688;2023-05-24T05:03:01;100802.39;;;12.38;53.23
3748;BME280;1889;50.058;8.688;2023-05-24T05:05:31;100803.96;;;12.49;53.33
3748;BME280;1889;50.058;8.688;2023-05-24T05:08:00;100807.39;;;12.24;53.83
3748;BME280;1889;50.058;8.688;2023-05-24T05:10:30;100804.61;;;12.35;54.05
3748;BME280;1889;50.058;8.688;2023-05-24T05:13:00;100800.23;;;12.91;52.75
3748;BME280;1889;50.058;8.688;2023-05-24T05:15:29;100804.59;;;12.38;54.01
3748;BME280;1889;50.058;8.688;2023-05-24T05:17:59;100804.59;;;12.38;54.01
3748;BME280;1889;50.058;8.688;2023-05-24T05:20:28;100807.53;;;12.48;53.63
3748;BME280;1889;50.058;8.688;2023-05-24T05:22:58;100803.42;;;12.86;53.46
3748;BME280;1889;50.058;8.688;2023-05-24T05:25:27;100800.28;;;13.16;52.84
3748;BME280;1889;50.058;8.688;2023-05-24T05:27:58;100812.95;;;12.96;52.70
3748;BME280;1889;50.058;8.688;2023-05-24T05:30:27;100811.15;;;13.25;52.48
3748;BME280;1889;50.058;8.688;2023-05-24T05:32:56;100820.67;;;13.59;51.77
3748;BME280;1889;50.058;8.688;2023-05-24T05:35:26;100820.80;;;13.53;51.98
3748;BME280;1889;50.058;8.688;2023-05-24T05:37:55;100821.69;;;13.52;51.60
3748;BME280;1889;50.058;8.688;2023-05-24T05:40:24;100820.91;;;12.93;52.07
3748;BME280;1889;50.058;8.688;2023-05-24T05:42:53;100823.39;;;13.04;52.71
3748;BME280;1889;50.058;8.688;2023-05-24T05:45:23;100826.14;;;13.24;52.09
3748;BME280;1889;50.058;8.688;2023-05-24T05:47:53;100831.81;;;13.28;51.63
3748;BME280;1889;50.058;8.688;2023-05-24T05:50:22;100842.16;;;12.87;52.85
3748;BME280;1889;50.058;8.688;2023-05-24T05:52:51;100832.75;;;13.24;52.15
3748;BME280;1889;50.058;8.688;2023-05-24T05:55:21;100832.08;;;13.10;52.31
3748;BME280;1889;50.058;8.688;2023-05-24T05:57:50;100832.66;;;13.02;52.42
3748;BME280;1889;50.058;8.688;2023-05-24T06:00:21;100836.17;;;13.03;52.76
3748;BME280;1889;50.058;8.688;2023-05-24T06:02:50;100838.57;;;13.19;52.28
3748;BME280;1889;50.058;8.688;2023-05-24T06:05:20;100846.50;;;13.19;52.72
3748;BME280;1889;50.058;8.688;2023-05-24T06:07:49;100848.94;;;13.55;51.74
3748;BME280;1889;50.058;8.688;2023-05-24T06:10:18;100844.69;;;13.94;50.93
3748;BME280;1889;50.058;8.688;2023-05-24T06:12:48;100844.69;;;13.94;50.93
3748;BME280;1889;50.058;8.688;2023-05-24T06:15:17;100846.69;;;13.34;51.51
3748;BME280;1889;50.058;8.688;2023-05-24T06:17:49;100844.92;;;13.58;51.12
3748;BME280;1889;50.058;8.688;2023-05-24T06:20:19;100854.40;;;13.94;50.48
3748;BME280;1889;50.058;8.688;2023-05-24T06:22:49;100854.41;;;14.14;49.79
3748;BME280;1889;50.058;8.688;2023-05-24T06:25:18;100856.22;;;13.90;50.47
3748;BME280;1889;50.058;8.688;2023-05-24T06:27:48;100851.42;;;13.87;50.34
3748;BME280;1889;50.058;8.688;2023-05-24T06:30:17;100854.84;;;13.93;50.61
3748;BME280;1889;50.058;8.688;2023-05-24T06:32:47;100857.44;;;13.49;51.04
3748;BME280;1889;50.058;8.688;2023-05-24T06:35:16;100863.78;;;13.38;51.99
3748;BME280;1889;50.058;8.688;2023-05-24T06:37:45;100863.44;;;13.58;51.30
3748;BME280;1889;50.058;8.688;2023-05-24T06:40:15;100868.69;;;13.06;51.92
3748;BME280;1889;50.058;8.688;2023-05-24T06:42:44;100864.22;;;13.11;51.66
3748;BME280;1889;50.058;8.688;2023-05-24T06:45:13;100860.37;;;13.32;51.37
3748;BME280;1889;50.058;8.688;2023-05-24T06:47:43;100858.27;;;13.27;51.57
3748;BME280;1889;50.058;8.688;2023-05-24T06:50:12;100860.58;;;13.21;51.90
3748;BME280;1889;50.058;8.688;2023-05-24T06:52:41;100861.98;;;12.55;53.02
3748;BME280;1889;50.058;8.688;2023-05-24T06:55:11;100861.98;;;12.55;53.02
3748;BME280;1889;50.058;8.688;2023-05-24T06:57:40;100856.40;;;12.45;53.56
3748;BME280;1889;50.058;8.688;2023-05-24T07:00:10;100856.40;;;12.45;53.56
3748;BME280;1889;50.058;8.688;2023-05-24T07:02:40;100856.40;;;12.45;53.60
3748;BME280;1889;50.058;8.688;2023-05-24T07:05:09;100856.86;;;12.73;53.23
3748;BME280;1889;50.058;8.688;2023-05-24T07:07:42;100856.97;;;12.97;53.33
3748;BME280;1889;50.058;8.688;2023-05-24T07:10:11;100855.17;;;13.27;52.86
3748;BME280;1889;50.058;8.688;2023-05-24T07:12:41;100853.27;;;13.61;51.71
3748;BME280;1889;50.058;8.688;2023-05-24T07:15:10;100857.93;;;13.21;52.32
3748;BME280;1889;50.058;8.688;2023-05-24T07:17:40;100857.11;;;12.88;52.13
3748;BME280;1889;50.058;8.688;2023-05-24T07:20:10;100852.69;;;13.18;52.41
3748;BME280;1889;50.058;8.688;2023-05-24T07:22:40;100849.23;;;13.12;52.16
3748;BME280;1889;50.058;8.688;2023-05-24T07:25:11;100850.74;;;12.99;51.44
3748;BME280;1889;50.058;8.688;2023-05-24T07:27:40;100861.20;;;13.06;50.45
3748;BME280;1889;50.058;8.688;2023-05-24T07:30:10;100862.91;;;13.11;50.80
3748;BME280;1889;50.058;8.688;2023-05-24T07:32:39;100856.92;;;13.28;51.01
3748;BME280;1889;50.058;8.688;2023-05-24T07:35:10;100876.86;;;13.46;50.97
3748;BME280;1889;50.058;8.688;2023-05-24T07:37:43;100874.44;;;13.83;49.52
3748;BME280;1889;50.058;8.688;2023-05-24T07:40:12;100880.20;;;14.03;50.08
3748;BME280;1889;50.058;8.688;2023-05-24T07:42:42;100879.55;;;14.14;49.54
3748;BME280;1889;50.058;8.688;2023-05-24T07:45:11;100893.23;;;14.14;49.50
3748;BME280;1889;50.058;8.688;2023-05-24T07:47:41;100889.62;;;13.96;49.01
3748;BME280;1889;50.058;8.688;2023-05-24T07:50:10;100884.59;;;14.50;48.46
3748;BME280;1889;50.058;8.688;2023-05-24T07:52:40;100893.45;;;13.80;49.02
3748;BME280;1889;50.058;8.688;2023-05-24T07:55:10;100891.95;;;13.41;50.16
3748;BME280;1889;50.058;8.688;2023-05-24T07:57:39;100890.32;;;14.05;49.61
3748;BME280;1889;50.058;8.688;2023-05-24T08:00:09;100903.09;;;14.28;48.77
3748;BME280;1889;50.058;8.688;2023-05-24T08:02:43;100899.31;;;13.97;49.25
3748;BME280;1889;50.058;8.688;2023-05-24T08:05:13;100899.48;;;13.64;49.13
3748;BME280;1889;50.058;8.688;2023-05-24T08:07:43;100887.84;;;13.74;49.54
3748;BME280;1889;50.058;8.688;2023-05-24T08:10:13;100890.52;;;13.47;49.55
3748;BME280;1889;50.058;8.688;2023-05-24T08:12:43;100889.55;;;14.00;49.05
3748;BME280;1889;50.058;8.688;2023-05-24T08:15:12;100891.17;;;13.85;48.34
3748;BME280;1889;50.058;8.688;2023-05-24T08:17:41;100888.75;;;13.95;49.34
3748;BME280;1889;50.058;8.688;2023-05-24T08:20:11;100887.63;;;14.08;48.80
3748;BME280;1889;50.058;8.688;2023-05-24T08:22:42;100883.75;;;14.26;48.49
3748;BME280;1889;50.058;8.688;2023-05-24T08:25:11;100885.25;;;14.39;48.83
3748;BME280;1889;50.058;8.688;2023-05-24T08:27:41;100887.01;;;15.00;47.46
3748;BME280;1889;50.058;8.688;2023-05-24T08:30:10;100884.34;;;15.17;46.60
3748;BME280;1889;50.058;8.688;2023-05-24T08:32:40;100887.33;;;14.84;47.49
3748;BME280;1889;50.058;8.688;2023-05-24T08:35:09;100874.74;;;15.31;46.73
3748;BME280;1889;50.058;8.688;2023-05-24T08:37:39;100881.95;;;14.68;47.49
3748;BME280;1889;50.058;8.688;2023-05-24T08:40:08;100887.50;;;13.92;49.07
3748;BME280;1889;50.058;8.688;2023-05-24T08:42:38;100887.50;;;13.92;49.07
3748;BME280;1889;50.058;8.688;2023-05-24T08:45:10;100895.50;;;14.34;48.29
3748;BME280;1889;50.058;8.688;2023-05-24T08:47:40;100895.45;;;14.77;47.72
3748;BME280;1889;50.058;8.688;2023-05-24T08:50:09;100887.11;;;14.34;49.10
3748;BME280;1889;50.058;8.688;2023-05-24T08:52:39;100891.22;;;14.04;49.03
3748;BME280;1889;50.058;8.688;2023-05-24T08:55:10;100891.22;;;14.04;49.03
3748;BME280;1889;50.058;8.688;2023-05-24T08:57:39;100887.15;;;13.63;49.63
3748;BME280;1889;50.058;8.688;2023-05-24T09:00:11;100880.30;;;14.21;48.88
3748;BME280;1889;50.058;8.688;2023-05-24T09:02:42;100888.53;;;14.07;49.01
3748;BME280;1889;50.058;8.688;2023-05-24T09:05:12;100883.73;;;14.04;48.70
3748;BME280;1889;50.058;8.688;2023-05-24T09:07:44;100878.95;;;14.23;48.37
3748;BME280;1889;50.058;8.688;2023-05-24T09:10:14;100874.95;;;14.46;48.42
3748;BME280;1889;50.058;8.688;2023-05-24T09:12:46;100874.92;;;15.06;47.65
3748;BME280;1889;50.058;8.688;2023-05-24T09:15:17;100871.55;;;14.99;47.23
3748;BME280;1889;50.058;8.688;2023-05-24T09:17:46;100877.33;;;15.33;47.04
3748;BME280;1889;50.058;8.688;2023-05-24T09:20:16;100873.00;;;15.30;44.83
3748;BME280;1889;50.058;8.688;2023-05-24T09:22:49;100877.40;;;14.56;46.53
3748;BME280;1889;50.058;8.688;2023-05-24T09:25:18;100872.55;;;14.94;46.25
3748;BME280;1889;50.058;8.688;2023-05-24T09:27:52;100874.58;;;14.63;46.48
3748;BME280;1889;50.058;8.688;2023-05-24T09:30:21;100875.56;;;14.38;46.37
3748;BME280;1889;50.058;8.688;2023-05-24T09:32:58;100881.80;;;14.57;46.22
3748;BME280;1889;50.058;8.688;2023-05-24T09:35:27;100878.80;;;14.72;45.91
3748;BME280;1889;50.058;8.688;2023-05-24T09:37:58;100882.75;;;15.10;46.13
3748;BME280;1889;50.058;8.688;2023-05-24T09:40:28;100887.61;;;15.28;45.82
3748;BME280;1889;50.058;8.688;2023-05-24T09:43:05;100880.36;;;14.61;45.88
3748;BME280;1889;50.058;8.688;2023-05-24T09:45:41;100881.42;;;14.53;46.36
3748;BME280;1889;50.058;8.688;2023-05-24T09:48:13;100876.00;;;14.36;46.10
3748;BME280;1889;50.058;8.688;2023-05-24T09:50:43;100875.06;;;14.61;46.16
3748;BME280;1889;50.058;8.688;2023-05-24T09:53:17;100870.46;;;15.08;45.81
3748;BME280;1889;50.058;8.688;2023-05-24T09:55:47;100868.66;;;15.26;45.31
3748;BME280;1889;50.058;8.688;2023-05-24T09:58:17;100852.64;;;15.48;45.11
3748;BME280;1889;50.058;8.688;2023-05-24T10:00:46;100854.88;;;15.47;44.78
3748;BME280;1889;50.058;8.688;2023-05-24T10:03:16;100859.11;;;15.01;45.39
3748;BME280;1889;50.058;8.688;2023-05-24T10:05:45;100856.09;;;14.99;45.44
3748;BME280;1889;50.058;8.688;2023-05-24T10:08:15;100857.63;;;15.25;44.11
3748;BME280;1889;50.058;8.688;2023-05-24T10:10:46;100863.02;;;15.04;44.77
3748;BME280;1889;50.058;8.688;2023-05-24T10:13:17;100863.02;;;15.04;44.77
3748;BME280;1889;50.058;8.688;2023-05-24T10:15:46;100854.98;;;15.25;45.00
3748;BME280;1889;50.058;8.688;2023-05-24T10:18:15;100843.87;;;15.45;45.04
3748;BME280;1889;50.058;8.688;2023-05-24T10:20:45;100843.08;;;15.59;44.66
3748;BME280;1889;50.058;8.688;2023-05-24T10:23:18;100861.42;;;15.33;43.51
3748;BME280;1889;50.058;8.688;2023-05-24T10:25:58;100861.42;;;15.33;43.51
3748;BME280;1889;50.058;8.688;2023-05-24T10:28:26;100861.61;;;15.25;45.02
3748;BME280;1889;50.058;8.688;2023-05-24T10:31:08;100857.99;;;15.64;45.07
3748;BME280;1889;50.058;8.688;2023-05-24T10:33:38;100857.99;;;15.64;45.07
3748;BME280;1889;50.058;8.688;2023-05-24T10:36:10;100854.28;;;15.52;44.24
3748;BME280;1889;50.058;8.688;2023-05-24T10:38:41;100847.20;;;15.54;43.51
3748;BME280;1889;50.058;8.688;2023-05-24T10:41:11;100844.53;;;16.03;44.33
3748;BME280;1889;50.058;8.688;2023-05-24T10:43:44;100842.91;;;16.28;43.50
3748;BME280;1889;50.058;8.688;2023-05-24T10:46:14;100842.53;;;16.40;43.46
3748;BME280;1889;50.058;8.688;2023-05-24T10:48:46;100842.53;;;16.40;43.46
3748;BME280;1889;50.058;8.688;2023-05-24T10:51:37;100839.12;;;16.79;43.00
3748;BME280;1889;50.058;8.688;2023-05-24T10:54:11;100830.25;;;17.46;41.97
3748;BME280;1889;50.058;8.688;2023-05-24T10:56:46;100834.38;;;17.68;41.09
3748;BME280;1889;50.058;8.688;2023-05-24T10:59:22;100820.59;;;17.31;40.91
3748;BME280;1889;50.058;8.688;2023-05-24T11:01:57;100818.08;;;17.66;40.04
3748;BME280;1889;50.058;8.688;2023-05-24T11:04:31;100822.80;;;16.92;40.86
3748;BME280;1889;50.058;8.688;2023-05-24T11:07:02;100822.70;;;16.52;40.97
3748;BME280;1889;50.058;8.688;2023-05-24T11:09:32;100823.89;;;16.27;42.31
3748;BME280;1889;50.058;8.688;2023-05-24T11:12:07;100815.30;;;16.47;42.83
3748;BME280;1889;50.058;8.688;2023-05-24T11:14:37;100813.32;;;16.96;41.32
3748;BME280;1889;50.058;8.688;2023-05-24T11:17:10;100817.97;;;16.76;40.93
3748;BME280;1889;50.058;8.688;2023-05-24T11:19:50;100817.97;;;16.76;40.93
3748;BME280;1889;50.058;8.688;2023-05-24T11:22:16;100806.87;;;17.03;40.62
3748;BME280;1889;50.058;8.688;2023-05-24T11:24:47;100811.28;;;17.31;40.75
3748;BME280;1889;50.058;8.688;2023-05-24T11:27:17;100807.44;;;17.39;39.76
3748;BME280;1889;50.058;8.688;2023-05-24T11:29:47;100805.03;;;17.83;39.00
3748;BME280;1889;50.058;8.688;2023-05-24T11:32:19;100800.64;;;18.05;38.65
3748;BME280;1889;50.058;8.688;2023-05-24T11:34:49;100803.56;;;17.74;37.83
3748;BME280;1889;50.058;8.688;2023-05-24T11:37:18;100796.50;;;17.85;38.97
3748;BME280;1889;50.058;8.688;2023-05-24T11:39:50;100804.68;;;18.27;38.60
3748;BME280;1889;50.058;8.688;2023-05-24T11:42:22;100796.63;;;18.40;37.21
3748;BME280;1889;50.058;8.688;2023-05-24T11:44:52;100799.41;;;18.02;38.35
3748;BME280;1889;50.058;8.688;2023-05-24T11:47:22;100797.38;;;18.09;37.75
3748;BME280;1889;50.058;8.688;2023-05-24T11:49:52;100797.38;;;18.09;37.75
3748;BME280;1889;50.058;8.688;2023-05-24T11:52:21;100793.81;;;17.48;38.81
3748;BME280;1889;50.058;8.688;2023-05-24T11:54:50;100793.55;;;17.81;38.39
3748;BME280;1889;50.058;8.688;2023-05-24T11:57:25;100797.73;;;18.11;38.48
3748;BME280;1889;50.058;8.688;2023-05-24T11:59:53;100792.63;;;18.17;37.50
3748;BME280;1889;50.058;8.688;2023-05-24T12:02:24;100792.63;;;18.17;37.50
3748;BME280;1889;50.058;8.688;2023-05-24T12:04:54;100793.80;;;18.56;37.25
3748;BME280;1889;50.058;8.688;2023-05-24T12:07:23;100778.34;;;18.08;37.16
3748;BME280;1889;50.058;8.688;2023-05-24T12:09:52;100786.64;;;18.57;38.09
3748;BME280;1889;50.058;8.688;2023-05-24T12:12:22;100789.61;;;18.26;37.09
3748;BME280;1889;50.058;8.688;2023-05-24T12:14:54;100764.08;;;17.85;37.04
3748;BME280;1889;50.058;8.688;2023-05-24T12:17:23;100764.08;;;17.85;37.04
3748;BME280;1889;50.058;8.688;2023-05-24T12:19:53;100780.34;;;18.24;37.17
3748;BME280;1889;50.058;8.688;2023-05-24T12:22:26;100775.06;;;18.46;36.24
3748;BME280;1889;50.058;8.688;2023-05-24T12:24:55;100778.90;;;17.92;37.42
3748;BME280;1889;50.058;8.688;2023-05-24T12:27:27;100780.28;;;18.38;37.58
3748;BME280;1889;50.058;8.688;2023-05-24T12:30:05;100780.28;;;18.38;37.58
3748;BME280;1889;50.058;8.688;2023-05-24T12:32:37;100778.88;;;18.62;36.90
3748;BME280;1889;50.058;8.688;2023-05-24T12:35:08;100786.81;;;18.86;37.51
3748;BME280;1889;50.058;8.688;2023-05-24T12:37:39;100783.64;;;19.08;36.49
3748;BME280;1889;50.058;8.688;2023-05-24T12:40:18;100782.27;;;19.20;36.88
3748;BME280;1889;50.058;8.688;2023-05-24T12:42:54;100777.03;;;19.69;36.73
3748;BME280;1889;50.058;8.688;2023-05-24T12:45:24;100785.73;;;18.80;35.14
3748;BME280;1889;50.058;8.688;2023-05-24T12:47:55;100780.75;;;18.92;35.46
3748;BME280;1889;50.058;8.688;2023-05-24T12:50:25;100776.37;;;19.22;35.41
3748;BME280;1889;50.058;8.688;2023-05-24T12:52:55;100769.36;;;19.51;34.87
3748;BME280;1889;50.058;8.688;2023-05-24T12:55:25;100768.55;;;19.69;34.89
3748;BME280;1889;50.058;8.688;2023-05-24T12:57:55;100766.34;;;19.28;35.44
3748;BME280;1889;50.058;8.688;2023-05-24T13:00:25;100763.51;;;19.31;36.02
3748;BME280;1889;50.058;8.688;2023-05-24T13:02:55;100765.73;;;19.62;34.96
3748;BME280;1889;50.058;8.688;2023-05-24T13:05:26;100765.13;;;18.83;34.48
3748;BME280;1889;50.058;8.688;2023-05-24T13:07:56;100746.84;;;19.57;34.54
3748;BME280;1889;50.058;8.688;2023-05-24T13:10:26;100748.77;;;19.73;34.91
3748;BME280;1889;50.058;8.688;2023-05-24T13:12:55;100761.19;;;19.74;34.52
3748;BME280;1889;50.058;8.688;2023-05-24T13:15:24;100754.31;;;19.18;33.98
3748;BME280;1889;50.058;8.688;2023-05-24T13:17:54;100753.66;;;19.13;34.87
3748;BME280;1889;50.058;8.688;2023-05-24T13:20:23;100747.08;;;20.10;33.33
3748;BME280;1889;50.058;8.688;2023-05-24T13:22:53;100744.09;;;19.97;33.78
3748;BME280;1889;50.058;8.688;2023-05-24T13:25:22;100744.09;;;19.97;33.78
3748;BME280;1889;50.058;8.688;2023-05-24T13:27:51;100749.04;;;19.96;33.31
3748;BME280;1889;50.058;8.688;2023-05-24T13:30:20;100736.13;;;20.06;33.41
3748;BME280;1889;50.058;8.688;2023-05-24T13:32:51;100740.93;;;19.79;33.02
3748;BME280;1889;50.058;8.688;2023-05-24T13:35:20;100735.17;;;19.49;34.38